sensor_id;sensor_type;location;lat;lon;timestamp;P1;durP1;ratioP1;P2;durP2;ratioP2
7017;SDS011;3549;42.162;24.726;2023-08-31T00:01:08;8.23;;;5.57;;
7017;SDS011;3549;42.162;24.726;2023-08-31T00:03:34;7.27;;;5.50;;
7017;SDS011;3549;42.162;24.726;2023-08-31T00:06:01;8.03;;;5.80;;
7017;SDS011;3549;42.162;24.726;2023-08-31T00:08:28;8.33;;;5.80;;
7017;SDS011;3549;42.162;24.726;2023-08-31T00:10:57;8.57;;;5.33;;
7017;SDS011;3549;42.162;24.726;2023-08-31T00:13:24;9.10;;;5.60;;
7017;SDS011;3549;42.162;24.726;2023-08-31T00:15:49;8.27;;;5.30;;
7017;SDS011;3549;42.162;24.726;2023-08-31T00:18:15;9.50;;;5.47;;
7017;SDS011;3549;42.162;24.726;2023-08-31T00:20:41;7.60;;;5.40;;
7017;SDS011;3549;42.162;24.726;2023-08-31T00:23:08;8.27;;;5.83;;
7017;SDS011;3549;42.162;24.726;2023-08-31T00:25:33;8.53;;;5.57;;
7017;SDS011;3549;42.162;24.726;2023-08-31T00:27:59;6.70;;;5.30;;
7017;SDS011;3549;42.162;24.726;2023-08-31T00:30:29;9.97;;;5.30;;
7017;SDS011;3549;42.162;24.726;2023-08-31T00:32:55;9.33;;;4.93;;
7017;SDS011;3549;42.162;24.726;2023-08-31T00:35:25;9.33;;;5.00;;
7017;SDS011;3549;42.162;24.726;2023-08-31T00:37:52;7.13;;;5.10;;
7017;SDS011;3549;42.162;24.726;2023-08-31T00:40:20;7.70;;;4.87;;
7017;SDS011;3549;42.162;24.726;2023-08-31T00:42:46;7.60;;;5.10;;
7017;SDS011;3549;42.162;24.726;2023-08-31T00:45:11;8.27;;;5.10;;
7017;SDS011;3549;42.162;24.726;2023-08-31T00:47:36;6.47;;;5.10;;
7017;SDS011;3549;42.162;24.726;2023-08-31T00:50:03;7.27;;;5.40;;
7017;SDS011;3549;42.162;24.726;2023-08-31T00:52:28;6.37;;;5.10;;
7017;SDS011;3549;42.162;24.726;2023-08-31T00:54:54;7.20;;;5.07;;
7017;SDS011;3549;42.162;24.726;2023-08-31T00:57:19;9.97;;;5.50;;
7017;SDS011;3549;42.162;24.726;2023-08-31T00:59:45;6.43;;;5.27;;
7017;SDS011;3549;42.162;24.726;2023-08-31T01:04:55;7.00;;;4.80;;
7017;SDS011;3549;42.162;24.726;2023-08-31T01:12:43;8.00;;;4.50;;
7017;SDS011;3549;42.162;24.726;2023-08-31T01:15:14;6.57;;;4.87;;
7017;SDS011;3549;42.162;24.726;2023-08-31T01:17:45;8.23;;;5.20;;
7017;SDS011;3549;42.162;24.726;2023-08-31T01:20:17;7.77;;;5.30;;
7017;SDS011;3549;42.162;24.726;2023-08-31T01:22:58;10.03;;;5.00;;
7017;SDS011;3549;42.162;24.726;2023-08-31T01:25:28;8.80;;;5.20;;
7017;SDS011;3549;42.162;24.726;2023-08-31T01:27:55;7.07;;;4.90;;
7017;SDS011;3549;42.162;24.726;2023-08-31T01:30:21;7.60;;;5.10;;
7017;SDS011;3549;42.162;24.726;2023-08-31T01:32:47;9.63;;;4.90;;
7017;SDS011;3549;42.162;24.726;2023-08-31T01:35:13;8.00;;;4.67;;
7017;SDS011;3549;42.162;24.726;2023-08-31T01:37:45;7.57;;;5.07;;
7017;SDS011;3549;42.162;24.726;2023-08-31T01:40:27;7.47;;;4.67;;
7017;SDS011;3549;42.162;24.726;2023-08-31T01:42:58;7.03;;;4.87;;
7017;SDS011;3549;42.162;24.726;2023-08-31T01:45:26;6.63;;;5.07;;
7017;SDS011;3549;42.162;24.726;2023-08-31T01:47:52;6.73;;;5.00;;
7017;SDS011;3549;42.162;24.726;2023-08-31T01:50:18;8.13;;;5.20;;
7017;SDS011;3549;42.162;24.726;2023-08-31T01:52:43;7.47;;;5.00;;
7017;SDS011;3549;42.162;24.726;2023-08-31T01:55:08;8.40;;;4.97;;
7017;SDS011;3549;42.162;24.726;2023-08-31T01:57:34;7.40;;;4.77;;
7017;SDS011;3549;42.162;24.726;2023-08-31T01:59:59;6.13;;;4.53;;
7017;SDS011;3549;42.162;24.726;2023-08-31T02:02:25;8.33;;;5.00;;
7017;SDS011;3549;42.162;24.726;2023-08-31T02:04:50;8.07;;;5.00;;
7017;SDS011;3549;42.162;24.726;2023-08-31T02:07:17;6.23;;;4.80;;
7017;SDS011;3549;42.162;24.726;2023-08-31T02:09:42;7.07;;;4.90;;
7017;SDS011;3549;42.162;24.726;2023-08-31T02:12:08;7.80;;;4.63;;
7017;SDS011;3549;42.162;24.726;2023-08-31T02:14:36;6.67;;;4.03;;
7017;SDS011;3549;42.162;24.726;2023-08-31T02:17:02;5.77;;;4.40;;
7017;SDS011;3549;42.162;24.726;2023-08-31T02:19:27;7.67;;;4.70;;
7017;SDS011;3549;42.162;24.726;2023-08-31T02:21:53;6.70;;;4.70;;
7017;SDS011;3549;42.162;24.726;2023-08-31T02:24:18;6.90;;;4.70;;
7017;SDS011;3549;42.162;24.726;2023-08-31T02:26:44;8.13;;;4.63;;
7017;SDS011;3549;42.162;24.726;2023-08-31T02:29:10;5.67;;;4.50;;
7017;SDS011;3549;42.162;24.726;2023-08-31T02:31:35;8.07;;;4.63;;
7017;SDS011;3549;42.162;24.726;2023-08-31T02:34:02;8.83;;;4.37;;
7017;SDS011;3549;42.162;24.726;2023-08-31T02:36:27;6.73;;;4.50;;
7017;SDS011;3549;42.162;24.726;2023-08-31T02:38:53;7.00;;;4.30;;
7017;SDS011;3549;42.162;24.726;2023-08-31T02:41:18;8.70;;;5.10;;
7017;SDS011;3549;42.162;24.726;2023-08-31T02:43:44;11.00;;;5.00;;
7017;SDS011;3549;42.162;24.726;2023-08-31T02:46:09;7.43;;;4.80;;
7017;SDS011;3549;42.162;24.726;2023-08-31T02:48:35;6.90;;;5.13;;
7017;SDS011;3549;42.162;24.726;2023-08-31T02:51:00;7.20;;;4.80;;
7017;SDS011;3549;42.162;24.726;2023-08-31T02:53:27;8.53;;;5.03;;
7017;SDS011;3549;42.162;24.726;2023-08-31T02:55:54;9.63;;;5.20;;
7017;SDS011;3549;42.162;24.726;2023-08-31T02:58:19;8.33;;;5.00;;
7017;SDS011;3549;42.162;24.726;2023-08-31T03:00:45;7.20;;;5.20;;
7017;SDS011;3549;42.162;24.726;2023-08-31T03:03:16;9.10;;;5.17;;
7017;SDS011;3549;42.162;24.726;2023-08-31T03:05:42;8.20;;;5.37;;
7017;SDS011;3549;42.162;24.726;2023-08-31T03:08:09;8.10;;;5.20;;
7017;SDS011;3549;42.162;24.726;2023-08-31T03:10:35;7.07;;;5.23;;
7017;SDS011;3549;42.162;24.726;2023-08-31T03:13:00;9.53;;;5.13;;
7017;SDS011;3549;42.162;24.726;2023-08-31T03:15:26;7.20;;;5.20;;
7017;SDS011;3549;42.162;24.726;2023-08-31T03:17:51;8.70;;;5.60;;
7017;SDS011;3549;42.162;24.726;2023-08-31T03:20:17;8.67;;;5.57;;
7017;SDS011;3549;42.162;24.726;2023-08-31T03:22:42;8.70;;;5.07;;
7017;SDS011;3549;42.162;24.726;2023-08-31T03:25:08;8.47;;;5.43;;
7017;SDS011;3549;42.162;24.726;2023-08-31T03:27:33;14.07;;;5.90;;
7017;SDS011;3549;42.162;24.726;2023-08-31T03:29:59;14.50;;;5.80;;
7017;SDS011;3549;42.162;24.726;2023-08-31T03:32:24;9.33;;;5.80;;
7017;SDS011;3549;42.162;24.726;2023-08-31T03:34:49;12.67;;;5.80;;
7017;SDS011;3549;42.162;24.726;2023-08-31T03:37:15;11.43;;;5.80;;
7017;SDS011;3549;42.162;24.726;2023-08-31T03:39:41;15.90;;;5.80;;
7017;SDS011;3549;42.162;24.726;2023-08-31T03:42:08;12.77;;;5.83;;
7017;SDS011;3549;42.162;24.726;2023-08-31T03:44:34;12.80;;;5.83;;
7017;SDS011;3549;42.162;24.726;2023-08-31T03:47:00;14.03;;;5.60;;
7017;SDS011;3549;42.162;24.726;2023-08-31T03:49:25;10.87;;;5.60;;
7017;SDS011;3549;42.162;24.726;2023-08-31T03:51:51;11.60;;;5.57;;
7017;SDS011;3549;42.162;24.726;2023-08-31T03:54:18;10.67;;;5.33;;
7017;SDS011;3549;42.162;24.726;2023-08-31T03:56:44;8.83;;;5.20;;
7017;SDS011;3549;42.162;24.726;2023-08-31T03:59:10;8.03;;;5.17;;
7017;SDS011;3549;42.162;24.726;2023-08-31T04:01:35;7.37;;;5.07;;
7017;SDS011;3549;42.162;24.726;2023-08-31T04:04:00;8.80;;;5.30;;
7017;SDS011;3549;42.162;24.726;2023-08-31T04:06:27;9.00;;;5.30;;
7017;SDS011;3549;42.162;24.726;2023-08-31T04:08:53;6.90;;;5.07;;
7017;SDS011;3549;42.162;24.726;2023-08-31T04:11:19;7.43;;;5.30;;
7017;SDS011;3549;42.162;24.726;2023-08-31T04:13:44;7.87;;;5.27;;
7017;SDS011;3549;42.162;24.726;2023-08-31T04:16:09;8.93;;;5.23;;
7017;SDS011;3549;42.162;24.726;2023-08-31T04:18:35;8.07;;;5.00;;
7017;SDS011;3549;42.162;24.726;2023-08-31T04:21:00;9.87;;;5.07;;
7017;SDS011;3549;42.162;24.726;2023-08-31T04:23:28;15.70;;;6.03;;
7017;SDS011;3549;42.162;24.726;2023-08-31T04:25:54;14.30;;;7.03;;
7017;SDS011;3549;42.162;24.726;2023-08-31T04:28:21;10.70;;;5.57;;
7017;SDS011;3549;42.162;24.726;2023-08-31T04:30:46;10.03;;;5.57;;
7017;SDS011;3549;42.162;24.726;2023-08-31T04:33:12;12.90;;;6.20;;
7017;SDS011;3549;42.162;24.726;2023-08-31T04:35:37;13.70;;;5.97;;
7017;SDS011;3549;42.162;24.726;2023-08-31T04:38:03;12.07;;;6.30;;
7017;SDS011;3549;42.162;24.726;2023-08-31T04:40:28;14.57;;;6.40;;
7017;SDS011;3549;42.162;24.726;2023-08-31T04:42:54;13.87;;;6.00;;
7017;SDS011;3549;42.162;24.726;2023-08-31T04:45:20;11.03;;;6.13;;
7017;SDS011;3549;42.162;24.726;2023-08-31T04:47:45;10.43;;;6.30;;
7017;SDS011;3549;42.162;24.726;2023-08-31T04:50:11;12.43;;;6.43;;
7017;SDS011;3549;42.162;24.726;2023-08-31T04:52:36;13.27;;;6.00;;
7017;SDS011;3549;42.162;24.726;2023-08-31T04:55:02;13.80;;;6.30;;
7017;SDS011;3549;42.162;24.726;2023-08-31T04:57:32;13.17;;;6.83;;
7017;SDS011;3549;42.162;24.726;2023-08-31T04:59:58;13.73;;;6.40;;
7017;SDS011;3549;42.162;24.726;2023-08-31T05:02:23;15.90;;;6.90;;
7017;SDS011;3549;42.162;24.726;2023-08-31T05:04:48;13.77;;;7.00;;
7017;SDS011;3549;42.162;24.726;2023-08-31T05:07:14;14.50;;;7.50;;
7017;SDS011;3549;42.162;24.726;2023-08-31T05:09:39;14.90;;;6.97;;
7017;SDS011;3549;42.162;24.726;2023-08-31T05:12:05;13.53;;;6.93;;
7017;SDS011;3549;42.162;24.726;2023-08-31T05:14:30;12.47;;;6.90;;
7017;SDS011;3549;42.162;24.726;2023-08-31T05:16:56;12.90;;;7.07;;
7017;SDS011;3549;42.162;24.726;2023-08-31T05:19:21;11.93;;;6.80;;
7017;SDS011;3549;42.162;24.726;2023-08-31T05:21:47;11.70;;;6.80;;
7017;SDS011;3549;42.162;24.726;2023-08-31T05:24:12;10.17;;;6.07;;
7017;SDS011;3549;42.162;24.726;2023-08-31T05:26:38;13.40;;;6.23;;
7017;SDS011;3549;42.162;24.726;2023-08-31T05:29:04;11.73;;;6.83;;
7017;SDS011;3549;42.162;24.726;2023-08-31T05:31:30;9.97;;;5.13;;
7017;SDS011;3549;42.162;24.726;2023-08-31T05:33:56;9.23;;;5.60;;
7017;SDS011;3549;42.162;24.726;2023-08-31T05:36:21;8.97;;;5.37;;
7017;SDS011;3549;42.162;24.726;2023-08-31T05:38:47;9.03;;;5.00;;
7017;SDS011;3549;42.162;24.726;2023-08-31T05:41:12;7.23;;;4.50;;
7017;SDS011;3549;42.162;24.726;2023-08-31T05:43:37;7.77;;;4.93;;
7017;SDS011;3549;42.162;24.726;2023-08-31T05:46:05;10.03;;;4.97;;
7017;SDS011;3549;42.162;24.726;2023-08-31T05:48:31;10.93;;;6.60;;
7017;SDS011;3549;42.162;24.726;2023-08-31T05:50:56;12.27;;;5.47;;
7017;SDS011;3549;42.162;24.726;2023-08-31T05:53:22;6.63;;;4.33;;
7017;SDS011;3549;42.162;24.726;2023-08-31T05:55:47;6.17;;;4.40;;
7017;SDS011;3549;42.162;24.726;2023-08-31T05:58:13;6.87;;;4.07;;
7017;SDS011;3549;42.162;24.726;2023-08-31T06:00:38;10.97;;;4.70;;
7017;SDS011;3549;42.162;24.726;2023-08-31T06:03:04;8.10;;;4.47;;
7017;SDS011;3549;42.162;24.726;2023-08-31T06:05:31;7.73;;;4.20;;
7017;SDS011;3549;42.162;24.726;2023-08-31T06:07:56;7.83;;;4.90;;
7017;SDS011;3549;42.162;24.726;2023-08-31T06:10:22;9.20;;;4.53;;
7017;SDS011;3549;42.162;24.726;2023-08-31T06:12:48;7.57;;;5.30;;
7017;SDS011;3549;42.162;24.726;2023-08-31T06:15:15;10.43;;;5.53;;
7017;SDS011;3549;42.162;24.726;2023-08-31T06:17:41;13.00;;;5.10;;
7017;SDS011;3549;42.162;24.726;2023-08-31T06:20:07;10.33;;;5.20;;
7017;SDS011;3549;42.162;24.726;2023-08-31T06:22:33;6.13;;;4.47;;
7017;SDS011;3549;42.162;24.726;2023-08-31T06:25:02;8.10;;;4.97;;
7017;SDS011;3549;42.162;24.726;2023-08-31T06:27:31;10.40;;;5.03;;
7017;SDS011;3549;42.162;24.726;2023-08-31T06:29:57;9.00;;;5.00;;
7017;SDS011;3549;42.162;24.726;2023-08-31T06:32:22;6.80;;;4.67;;
7017;SDS011;3549;42.162;24.726;2023-08-31T06:34:48;6.53;;;4.60;;
7017;SDS011;3549;42.162;24.726;2023-08-31T06:37:13;9.93;;;4.80;;
7017;SDS011;3549;42.162;24.726;2023-08-31T06:39:39;7.20;;;4.30;;
7017;SDS011;3549;42.162;24.726;2023-08-31T06:42:05;6.73;;;4.47;;
7017;SDS011;3549;42.162;24.726;2023-08-31T06:44:31;6.00;;;4.10;;
7017;SDS011;3549;42.162;24.726;2023-08-31T06:46:56;8.60;;;4.67;;
7017;SDS011;3549;42.162;24.726;2023-08-31T06:49:22;7.87;;;4.33;;
7017;SDS011;3549;42.162;24.726;2023-08-31T06:51:48;8.60;;;4.97;;
7017;SDS011;3549;42.162;24.726;2023-08-31T06:54:13;6.45;;;4.35;;
7017;SDS011;3549;42.162;24.726;2023-08-31T06:56:39;11.50;;;4.50;;
7017;SDS011;3549;42.162;24.726;2023-08-31T06:59:04;6.83;;;4.07;;
7017;SDS011;3549;42.162;24.726;2023-08-31T07:01:30;5.77;;;4.20;;
7017;SDS011;3549;42.162;24.726;2023-08-31T07:03:57;6.65;;;4.10;;
7017;SDS011;3549;42.162;24.726;2023-08-31T07:06:23;8.15;;;4.60;;
7017;SDS011;3549;42.162;24.726;2023-08-31T07:08:48;10.10;;;4.70;;
7017;SDS011;3549;42.162;24.726;2023-08-31T07:11:14;8.13;;;4.20;;
7017;SDS011;3549;42.162;24.726;2023-08-31T07:13:40;7.80;;;4.32;;
7017;SDS011;3549;42.162;24.726;2023-08-31T07:16:06;8.48;;;4.20;;
7017;SDS011;3549;42.162;24.726;2023-08-31T07:18:31;8.55;;;4.50;;
7017;SDS011;3549;42.162;24.726;2023-08-31T07:20:56;10.75;;;4.38;;
7017;SDS011;3549;42.162;24.726;2023-08-31T07:23:22;8.55;;;4.18;;
7017;SDS011;3549;42.162;24.726;2023-08-31T07:25:48;6.97;;;3.70;;
7017;SDS011;3549;42.162;24.726;2023-08-31T07:28:14;7.80;;;3.83;;
7017;SDS011;3549;42.162;24.726;2023-08-31T07:30:39;9.85;;;4.15;;
7017;SDS011;3549;42.162;24.726;2023-08-31T07:33:05;6.35;;;3.67;;
7017;SDS011;3549;42.162;24.726;2023-08-31T07:35:31;7.78;;;3.85;;
7017;SDS011;3549;42.162;24.726;2023-08-31T07:37:57;7.97;;;3.50;;
7017;SDS011;3549;42.162;24.726;2023-08-31T07:40:23;6.18;;;3.80;;
7017;SDS011;3549;42.162;24.726;2023-08-31T07:42:48;8.93;;;4.20;;
7017;SDS011;3549;42.162;24.726;2023-08-31T07:45:15;6.90;;;4.70;;
7017;SDS011;3549;42.162;24.726;2023-08-31T07:47:40;7.50;;;4.70;;
7017;SDS011;3549;42.162;24.726;2023-08-31T07:50:05;6.70;;;4.40;;
7017;SDS011;3549;42.162;24.726;2023-08-31T07:52:31;5.68;;;4.60;;
7017;SDS011;3549;42.162;24.726;2023-08-31T07:54:57;8.38;;;4.57;;
7017;SDS011;3549;42.162;24.726;2023-08-31T07:57:22;7.03;;;4.60;;
7017;SDS011;3549;42.162;24.726;2023-08-31T07:59:47;6.28;;;4.68;;
7017;SDS011;3549;42.162;24.726;2023-08-31T08:02:13;6.53;;;4.47;;
7017;SDS011;3549;42.162;24.726;2023-08-31T08:04:40;6.95;;;3.83;;
7017;SDS011;3549;42.162;24.726;2023-08-31T08:07:06;7.78;;;3.53;;
7017;SDS011;3549;42.162;24.726;2023-08-31T08:09:31;10.13;;;3.17;;
7017;SDS011;3549;42.162;24.726;2023-08-31T08:11:56;6.72;;;3.70;;
7017;SDS011;3549;42.162;24.726;2023-08-31T08:14:22;5.57;;;3.50;;
7017;SDS011;3549;42.162;24.726;2023-08-31T08:16:47;6.30;;;3.15;;
7017;SDS011;3549;42.162;24.726;2023-08-31T08:19:12;4.88;;;3.08;;
7017;SDS011;3549;42.162;24.726;2023-08-31T08:21:38;6.40;;;3.05;;
7017;SDS011;3549;42.162;24.726;2023-08-31T08:24:03;6.20;;;3.25;;
7017;SDS011;3549;42.162;24.726;2023-08-31T08:26:29;4.63;;;2.90;;
7017;SDS011;3549;42.162;24.726;2023-08-31T08:28:54;4.82;;;2.90;;
7017;SDS011;3549;42.162;24.726;2023-08-31T08:31:19;7.57;;;3.65;;
7017;SDS011;3549;42.162;24.726;2023-08-31T08:33:45;5.70;;;3.30;;
7017;SDS011;3549;42.162;24.726;2023-08-31T08:36:10;9.95;;;3.70;;
7017;SDS011;3549;42.162;24.726;2023-08-31T08:38:36;5.13;;;3.20;;
7017;SDS011;3549;42.162;24.726;2023-08-31T08:41:04;3.72;;;2.90;;
7017;SDS011;3549;42.162;24.726;2023-08-31T08:43:31;4.93;;;3.10;;
7017;SDS011;3549;42.162;24.726;2023-08-31T08:46:00;5.68;;;3.08;;
7017;SDS011;3549;42.162;24.726;2023-08-31T08:48:30;4.57;;;3.15;;
7017;SDS011;3549;42.162;24.726;2023-08-31T08:50:57;4.30;;;3.00;;
7017;SDS011;3549;42.162;24.726;2023-08-31T08:53:22;6.15;;;3.22;;
7017;SDS011;3549;42.162;24.726;2023-08-31T08:55:48;4.65;;;3.20;;
7017;SDS011;3549;42.162;24.726;2023-08-31T08:58:13;5.15;;;3.38;;
7017;SDS011;3549;42.162;24.726;2023-08-31T09:00:38;5.00;;;3.50;;
7017;SDS011;3549;42.162;24.726;2023-08-31T09:03:05;4.35;;;3.08;;
7017;SDS011;3549;42.162;24.726;2023-08-31T09:05:34;8.25;;;3.00;;
7017;SDS011;3549;42.162;24.726;2023-08-31T09:07:59;4.95;;;3.00;;
7017;SDS011;3549;42.162;24.726;2023-08-31T09:10:38;6.05;;;3.40;;
7017;SDS011;3549;42.162;24.726;2023-08-31T09:13:05;8.52;;;3.28;;
7017;SDS011;3549;42.162;24.726;2023-08-31T09:15:36;4.40;;;3.10;;
7017;SDS011;3549;42.162;24.726;2023-08-31T09:18:16;5.70;;;4.00;;
7017;SDS011;3549;42.162;24.726;2023-08-31T09:20:48;5.80;;;3.00;;
7017;SDS011;3549;42.162;24.726;2023-08-31T09:23:14;4.00;;;2.70;;
7017;SDS011;3549;42.162;24.726;2023-08-31T09:25:41;10.57;;;3.72;;
7017;SDS011;3549;42.162;24.726;2023-08-31T09:28:08;6.18;;;3.00;;
7017;SDS011;3549;42.162;24.726;2023-08-31T09:30:35;4.03;;;3.17;;
7017;SDS011;3549;42.162;24.726;2023-08-31T09:33:02;10.15;;;3.45;;
7017;SDS011;3549;42.162;24.726;2023-08-31T09:35:29;6.20;;;3.70;;
7017;SDS011;3549;42.162;24.726;2023-08-31T09:37:55;4.70;;;3.33;;
7017;SDS011;3549;42.162;24.726;2023-08-31T09:40:24;4.80;;;3.22;;
7017;SDS011;3549;42.162;24.726;2023-08-31T09:42:50;5.75;;;3.30;;
7017;SDS011;3549;42.162;24.726;2023-08-31T09:45:25;5.53;;;3.20;;
7017;SDS011;3549;42.162;24.726;2023-08-31T09:47:56;7.40;;;3.72;;
7017;SDS011;3549;42.162;24.726;2023-08-31T09:50:31;3.58;;;2.90;;
7017;SDS011;3549;42.162;24.726;2023-08-31T09:53:02;3.80;;;3.00;;
7017;SDS011;3549;42.162;24.726;2023-08-31T09:55:29;4.68;;;3.08;;
7017;SDS011;3549;42.162;24.726;2023-08-31T09:57:57;3.30;;;3.00;;
7017;SDS011;3549;42.162;24.726;2023-08-31T10:00:25;5.55;;;3.05;;
7017;SDS011;3549;42.162;24.726;2023-08-31T10:02:52;4.15;;;3.03;;
7017;SDS011;3549;42.162;24.726;2023-08-31T10:05:20;9.25;;;3.28;;
7017;SDS011;3549;42.162;24.726;2023-08-31T10:07:47;6.97;;;3.03;;
7017;SDS011;3549;42.162;24.726;2023-08-31T10:10:14;4.95;;;3.10;;
7017;SDS011;3549;42.162;24.726;2023-08-31T10:12:40;5.85;;;3.00;;
7017;SDS011;3549;42.162;24.726;2023-08-31T10:15:08;5.30;;;3.22;;
7017;SDS011;3549;42.162;24.726;2023-08-31T10:17:34;5.13;;;3.10;;
7017;SDS011;3549;42.162;24.726;2023-08-31T10:20:01;4.85;;;3.08;;
7017;SDS011;3549;42.162;24.726;2023-08-31T10:22:27;6.07;;;3.45;;
7017;SDS011;3549;42.162;24.726;2023-08-31T10:25:01;4.80;;;3.08;;
7017;SDS011;3549;42.162;24.726;2023-08-31T10:27:29;6.70;;;3.55;;
7017;SDS011;3549;42.162;24.726;2023-08-31T10:35:40;7.38;;;3.00;;
7017;SDS011;3549;42.162;24.726;2023-08-31T10:38:34;7.25;;;3.63;;
7017;SDS011;3549;42.162;24.726;2023-08-31T10:48:56;3.90;;;3.00;;
7017;SDS011;3549;42.162;24.726;2023-08-31T10:51:25;4.88;;;3.55;;
7017;SDS011;3549;42.162;24.726;2023-08-31T10:59:43;5.90;;;3.72;;
7017;SDS011;3549;42.162;24.726;2023-08-31T11:02:09;5.53;;;3.70;;
7017;SDS011;3549;42.162;24.726;2023-08-31T11:04:54;4.32;;;3.30;;
7017;SDS011;3549;42.162;24.726;2023-08-31T11:07:24;6.13;;;3.92;;
7017;SDS011;3549;42.162;24.726;2023-08-31T11:09:50;5.20;;;3.50;;
7017;SDS011;3549;42.162;24.726;2023-08-31T11:12:16;5.93;;;3.70;;
7017;SDS011;3549;42.162;24.726;2023-08-31T11:14:41;6.10;;;4.28;;
7017;SDS011;3549;42.162;24.726;2023-08-31T11:17:07;8.02;;;3.90;;
7017;SDS011;3549;42.162;24.726;2023-08-31T11:19:33;6.32;;;3.67;;
7017;SDS011;3549;42.162;24.726;2023-08-31T11:22:00;7.65;;;3.65;;
7017;SDS011;3549;42.162;24.726;2023-08-31T11:24:28;4.82;;;3.63;;
7017;SDS011;3549;42.162;24.726;2023-08-31T11:26:54;7.90;;;3.70;;
7017;SDS011;3549;42.162;24.726;2023-08-31T11:29:20;5.50;;;3.70;;
7017;SDS011;3549;42.162;24.726;2023-08-31T11:31:46;4.95;;;3.83;;
7017;SDS011;3549;42.162;24.726;2023-08-31T11:34:12;5.70;;;4.20;;
7017;SDS011;3549;42.162;24.726;2023-08-31T11:36:39;5.88;;;3.97;;
7017;SDS011;3549;42.162;24.726;2023-08-31T11:39:06;5.32;;;3.50;;
7017;SDS011;3549;42.162;24.726;2023-08-31T11:41:33;4.35;;;3.80;;
7017;SDS011;3549;42.162;24.726;2023-08-31T11:44:01;6.53;;;3.65;;
7017;SDS011;3549;42.162;24.726;2023-08-31T11:46:28;5.30;;;3.78;;
7017;SDS011;3549;42.162;24.726;2023-08-31T11:48:54;4.85;;;4.00;;
7017;SDS011;3549;42.162;24.726;2023-08-31T11:51:20;4.47;;;3.67;;
7017;SDS011;3549;42.162;24.726;2023-08-31T11:53:46;5.03;;;3.85;;
7017;SDS011;3549;42.162;24.726;2023-08-31T11:56:12;4.57;;;3.80;;
7017;SDS011;3549;42.162;24.726;2023-08-31T11:58:41;4.50;;;3.90;;
7017;SDS011;3549;42.162;24.726;2023-08-31T12:01:07;4.93;;;3.63;;
7017;SDS011;3549;42.162;24.726;2023-08-31T12:03:43;4.82;;;3.88;;
7017;SDS011;3549;42.162;24.726;2023-08-31T12:06:14;4.60;;;3.50;;
7017;SDS011;3549;42.162;24.726;2023-08-31T12:08:41;4.10;;;3.63;;
7017;SDS011;3549;42.162;24.726;2023-08-31T12:11:06;5.30;;;3.60;;
7017;SDS011;3549;42.162;24.726;2023-08-31T12:13:32;9.48;;;4.00;;
7017;SDS011;3549;42.162;24.726;2023-08-31T12:15:57;4.72;;;3.22;;
7017;SDS011;3549;42.162;24.726;2023-08-31T12:18:23;4.60;;;3.80;;
7017;SDS011;3549;42.162;24.726;2023-08-31T12:20:52;6.15;;;4.35;;
7017;SDS011;3549;42.162;24.726;2023-08-31T12:23:20;4.43;;;3.70;;
7017;SDS011;3549;42.162;24.726;2023-08-31T12:25:50;6.97;;;3.70;;
7017;SDS011;3549;42.162;24.726;2023-08-31T12:28:20;5.68;;;3.80;;
7017;SDS011;3549;42.162;24.726;2023-08-31T12:30:47;4.60;;;4.03;;
7017;SDS011;3549;42.162;24.726;2023-08-31T12:33:14;5.55;;;3.83;;
7017;SDS011;3549;42.162;24.726;2023-08-31T12:35:40;6.00;;;3.67;;
7017;SDS011;3549;42.162;24.726;2023-08-31T12:38:05;4.88;;;3.90;;
7017;SDS011;3549;42.162;24.726;2023-08-31T12:40:30;7.63;;;4.00;;
7017;SDS011;3549;42.162;24.726;2023-08-31T12:42:56;5.40;;;3.55;;
7017;SDS011;3549;42.162;24.726;2023-08-31T12:45:21;3.88;;;3.45;;
7017;SDS011;3549;42.162;24.726;2023-08-31T12:47:46;6.38;;;3.67;;
7017;SDS011;3549;42.162;24.726;2023-08-31T12:50:12;6.95;;;3.75;;
7017;SDS011;3549;42.162;24.726;2023-08-31T12:52:38;6.78;;;3.50;;
7017;SDS011;3549;42.162;24.726;2023-08-31T12:55:09;4.55;;;3.80;;
7017;SDS011;3549;42.162;24.726;2023-08-31T12:57:35;5.25;;;3.60;;
7017;SDS011;3549;42.162;24.726;2023-08-31T13:00:01;6.00;;;4.00;;
7017;SDS011;3549;42.162;24.726;2023-08-31T13:02:28;3.60;;;3.30;;
7017;SDS011;3549;42.162;24.726;2023-08-31T13:04:54;8.73;;;3.70;;
7017;SDS011;3549;42.162;24.726;2023-08-31T13:07:19;6.57;;;3.90;;
7017;SDS011;3549;42.162;24.726;2023-08-31T13:09:44;4.80;;;3.70;;
7017;SDS011;3549;42.162;24.726;2023-08-31T13:12:10;4.32;;;3.92;;
7017;SDS011;3549;42.162;24.726;2023-08-31T13:14:35;6.68;;;3.85;;
7017;SDS011;3549;42.162;24.726;2023-08-31T13:17:01;4.90;;;3.72;;
7017;SDS011;3549;42.162;24.726;2023-08-31T13:19:26;9.23;;;3.80;;
7017;SDS011;3549;42.162;24.726;2023-08-31T13:21:52;4.93;;;3.60;;
7017;SDS011;3549;42.162;24.726;2023-08-31T13:24:17;4.70;;;3.72;;
7017;SDS011;3549;42.162;24.726;2023-08-31T13:26:43;4.50;;;3.70;;
7017;SDS011;3549;42.162;24.726;2023-08-31T13:29:12;5.30;;;4.20;;
7017;SDS011;3549;42.162;24.726;2023-08-31T13:31:38;5.18;;;4.00;;
7017;SDS011;3549;42.162;24.726;2023-08-31T13:34:04;6.68;;;3.90;;
7017;SDS011;3549;42.162;24.726;2023-08-31T13:36:31;6.90;;;4.15;;
7017;SDS011;3549;42.162;24.726;2023-08-31T13:38:57;5.18;;;4.10;;
7017;SDS011;3549;42.162;24.726;2023-08-31T13:41:22;4.00;;;3.60;;
7017;SDS011;3549;42.162;24.726;2023-08-31T13:43:48;5.70;;;3.60;;
7017;SDS011;3549;42.162;24.726;2023-08-31T13:46:13;6.97;;;4.30;;
7017;SDS011;3549;42.162;24.726;2023-08-31T13:48:39;5.20;;;4.00;;
7017;SDS011;3549;42.162;24.726;2023-08-31T13:51:04;6.70;;;4.47;;
7017;SDS011;3549;42.162;24.726;2023-08-31T13:53:29;9.20;;;4.10;;
7017;SDS011;3549;42.162;24.726;2023-08-31T13:55:55;5.70;;;4.20;;
7017;SDS011;3549;42.162;24.726;2023-08-31T13:58:20;6.38;;;4.00;;
7017;SDS011;3549;42.162;24.726;2023-08-31T14:00:46;7.07;;;4.00;;
7017;SDS011;3549;42.162;24.726;2023-08-31T14:03:12;5.32;;;4.30;;
7017;SDS011;3549;42.162;24.726;2023-08-31T14:05:37;5.70;;;3.78;;
7017;SDS011;3549;42.162;24.726;2023-08-31T14:08:03;6.88;;;4.10;;
7017;SDS011;3549;42.162;24.726;2023-08-31T14:10:30;8.10;;;4.40;;
7017;SDS011;3549;42.162;24.726;2023-08-31T14:12:57;6.65;;;4.40;;
7017;SDS011;3549;42.162;24.726;2023-08-31T14:15:22;5.93;;;4.15;;
7017;SDS011;3549;42.162;24.726;2023-08-31T14:17:50;8.13;;;4.40;;
7017;SDS011;3549;42.162;24.726;2023-08-31T14:20:16;6.07;;;4.20;;
7017;SDS011;3549;42.162;24.726;2023-08-31T14:22:42;5.07;;;3.80;;
7017;SDS011;3549;42.162;24.726;2023-08-31T14:25:12;6.75;;;4.00;;
7017;SDS011;3549;42.162;24.726;2023-08-31T14:27:37;8.57;;;4.07;;
7017;SDS011;3549;42.162;24.726;2023-08-31T14:30:04;4.68;;;3.90;;
7017;SDS011;3549;42.162;24.726;2023-08-31T14:32:31;4.57;;;4.10;;
7017;SDS011;3549;42.162;24.726;2023-08-31T14:34:56;5.35;;;4.10;;
7017;SDS011;3549;42.162;24.726;2023-08-31T14:37:22;8.93;;;4.60;;
7017;SDS011;3549;42.162;24.726;2023-08-31T14:39:47;6.85;;;4.70;;
7017;SDS011;3549;42.162;24.726;2023-08-31T14:42:12;7.95;;;4.25;;
7017;SDS011;3549;42.162;24.726;2023-08-31T14:44:40;6.28;;;4.47;;
7017;SDS011;3549;42.162;24.726;2023-08-31T14:47:05;5.63;;;4.70;;
7017;SDS011;3549;42.162;24.726;2023-08-31T14:49:31;6.85;;;4.45;;
7017;SDS011;3549;42.162;24.726;2023-08-31T14:51:56;6.40;;;4.95;;
7017;SDS011;3549;42.162;24.726;2023-08-31T14:54:21;4.60;;;4.20;;
7017;SDS011;3549;42.162;24.726;2023-08-31T14:56:48;7.32;;;5.45;;
7017;SDS011;3549;42.162;24.726;2023-08-31T14:59:14;7.85;;;5.03;;
7017;SDS011;3549;42.162;24.726;2023-08-31T15:01:39;7.28;;;5.40;;
7017;SDS011;3549;42.162;24.726;2023-08-31T15:04:05;6.25;;;5.28;;
7017;SDS011;3549;42.162;24.726;2023-08-31T15:06:30;12.73;;;6.07;;
7017;SDS011;3549;42.162;24.726;2023-08-31T15:08:58;9.13;;;5.68;;
7017;SDS011;3549;42.162;24.726;2023-08-31T15:11:25;7.38;;;5.88;;
7017;SDS011;3549;42.162;24.726;2023-08-31T15:13:51;14.40;;;5.72;;
7017;SDS011;3549;42.162;24.726;2023-08-31T15:16:17;10.63;;;5.43;;
7017;SDS011;3549;42.162;24.726;2023-08-31T15:18:43;14.02;;;9.65;;
7017;SDS011;3549;42.162;24.726;2023-08-31T15:21:09;7.22;;;5.68;;
7017;SDS011;3549;42.162;24.726;2023-08-31T15:23:35;8.55;;;5.40;;